Time;durP1;ratioP1;P1;durP2;ratioP2;P2;SDS_P1;SDS_P2;PMS_P1;PMS_P2;Temp;Humidity;BMP_temperature;BMP_pressure;BME280_temperature;BME280_humidity;BME280_pressure;Samples;Min_cycle;Max_cycle;Signal;HPM_P1;HPM_P2
2021/12/16 00:02:14;;;;;;;33.17;9.40;;;;;;;7.55;100.00;102973.19;4825561;29;20232;-82
2021/12/16 00:07:32;;;;;;;33.13;9.60;;;;;;;7.48;100.00;102984.66;4860581;29;20158;-79
2021/12/16 00:32:06;;;;;;;44.42;12.88;;;;;;;7.39;100.00;102997.06;4867203;29;20200;-81
2021/12/16 00:34:33;;;;;;;45.15;12.52;;;;;;;7.33;100.00;102983.66;4863673;29;20190;-82
2021/12/16 00:37:00;;;;;;;30.63;12.10;;;;;;;7.33;100.00;102982.78;4862005;29;20194;-82
2021/12/16 00:39:31;;;;;;;40.90;13.77;;;;;;;7.34;100.00;102971.22;4863057;29;20201;-82
2021/12/16 00:42:03;;;;;;;39.92;12.77;;;;;;;7.32;100.00;102988.97;4861846;29;20305;-82
2021/12/16 00:49:41;;;;;;;40.30;12.35;;;;;;;7.31;100.00;102982.75;4861987;29;20173;-82
2021/12/16 00:55:05;;;;;;;30.95;12.57;;;;;;;7.33;100.00;102974.78;4861401;29;20175;-81
2021/12/16 00:57:31;;;;;;;46.92;13.23;;;;;;;7.30;100.00;102990.72;4860662;29;20174;-83
2021/12/16 00:59:59;;;;;;;35.03;12.82;;;;;;;7.34;100.00;102981.88;4846350;29;20181;-82
2021/12/16 01:05:18;;;;;;;38.13;13.80;;;;;;;7.37;100.00;102984.59;4860419;29;20166;-82
2021/12/16 01:08:09;;;;;;;30.55;13.13;;;;;;;7.35;100.00;102997.91;4860025;29;20186;-82
2021/12/16 01:35:54;;;;;;;31.55;14.10;;;;;;;7.53;100.00;103025.63;4864544;29;20624;-81
2021/12/16 01:52:31;;;;;;;38.60;12.23;;;;;;;7.56;100.00;103047.00;4858729;29;20214;-82
2021/12/16 01:55:03;;;;;;;26.65;11.45;;;;;;;7.56;100.00;103058.56;4864134;29;20237;-81
2021/12/16 01:57:37;;;;;;;35.35;11.05;;;;;;;7.53;100.00;103061.22;4879504;29;20230;-81
2021/12/16 02:00:09;;;;;;;31.58;10.63;;;;;;;7.58;100.00;103063.91;4848905;29;20187;-81
2021/12/16 02:05:23;;;;;;;22.65;10.45;;;;;;;7.60;100.00;103055.03;4863533;29;20193;-80
2021/12/16 02:10:32;;;;;;;23.27;8.60;;;;;;;7.60;100.00;103051.50;4864836;29;20185;-80
2021/12/16 02:29:25;;;;;;;22.10;7.90;;;;;;;7.70;100.00;103049.81;4880041;29;20209;-81
2021/12/16 02:34:29;;;;;;;31.73;7.50;;;;;;;7.62;100.00;103049.72;4879486;29;20289;-81
2021/12/16 02:36:58;;;;;;;19.55;6.85;;;;;;;7.62;100.00;103049.72;4864319;29;20230;-82
2021/12/16 02:39:30;;;;;;;31.20;7.10;;;;;;;7.62;100.00;103047.06;4864784;29;20223;-82
2021/12/16 02:42:00;;;;;;;28.92;7.03;;;;;;;7.63;100.00;103046.16;4879731;29;20225;-81
2021/12/16 02:49:59;;;;;;;20.60;5.97;;;;;;;7.68;100.00;103057.81;4880099;29;20208;-82
2021/12/16 02:52:26;;;;;;;23.48;6.10;;;;;;;7.64;100.00;103048.84;4879522;29;20564;-82
2021/12/16 02:54:53;;;;;;;23.65;5.82;;;;;;;7.66;100.00;103045.34;4864441;29;20177;-82
2021/12/16 02:57:20;;;;;;;22.65;5.63;;;;;;;7.64;100.00;103047.97;4864304;29;20170;-82
2021/12/16 02:59:48;;;;;;;26.65;7.13;;;;;;;7.64;100.00;103045.31;4879600;29;20281;-83
2021/12/16 03:02:16;;;;;;;22.48;6.22;;;;;;;7.64;100.00;103047.97;4879895;29;20280;-83
2021/12/16 03:04:47;;;;;;;25.23;6.63;;;;;;;7.64;100.00;103045.31;4879531;29;20181;-82
2021/12/16 03:07:15;;;;;;;26.67;5.10;;;;;;;7.66;100.00;103053.34;4864149;29;20193;-82
2021/12/16 03:12:42;;;;;;;11.07;4.18;;;;;;;7.66;100.00;103058.66;4880769;29;20244;-82
2021/12/16 03:20:42;;;;;;;15.68;4.35;;;;;;;7.77;100.00;103062.34;4881563;29;20251;-81
2021/12/16 03:23:27;;;;;;;19.08;3.70;;;;;;;7.71;100.00;103055.16;4864132;29;20212;-81
2021/12/16 03:32:24;;;;;;;11.90;2.95;;;;;;;7.73;100.00;103061.41;4879452;29;20205;-83
2021/12/16 03:35:02;;;;;;;14.50;2.90;;;;;;;7.77;100.00;103068.56;4880982;29;20189;-81
2021/12/16 03:37:30;;;;;;;16.50;3.47;;;;;;;7.70;100.00;103072.06;4881239;29;20165;-82
2021/12/16 03:40:12;;;;;;;14.32;3.10;;;;;;;7.73;100.00;103068.50;4864668;29;20190;-82
2021/12/16 03:42:59;;;;;;;11.25;2.90;;;;;;;7.71;100.00;103076.50;4879897;29;20205;-82
2021/12/16 03:48:55;;;;;;;13.18;2.70;;;;;;;7.70;100.00;103103.19;4879879;29;20788;-82
2021/12/16 03:51:39;;;;;;;13.55;2.70;;;;;;;7.80;100.00;103110.38;4882868;29;20371;-81
2021/12/16 03:54:11;;;;;;;9.43;2.47;;;;;;;7.79;100.00;103104.16;4898415;29;20650;-81
2021/12/16 03:56:39;;;;;;;9.32;2.30;;;;;;;7.78;100.00;103121.06;4830863;29;20785;-81
2021/12/16 03:59:12;;;;;;;12.05;2.60;;;;;;;7.83;100.00;103119.31;4831201;29;20190;-81
2021/12/16 04:01:52;;;;;;;9.73;2.42;;;;;;;7.77;100.00;103108.59;4845681;29;20668;-81
2021/12/16 04:04:24;;;;;;;14.13;3.40;;;;;;;7.79;100.00;103133.50;4861475;29;20189;-81
2021/12/16 04:06:51;;;;;;;9.07;2.33;;;;;;;7.80;100.00;103137.06;4846808;29;20206;-81
2021/12/16 04:09:17;;;;;;;6.53;2.28;;;;;;;7.77;100.00;103137.94;4859390;29;20184;-81
2021/12/16 04:12:20;;;;;;;11.02;2.55;;;;;;;7.76;100.00;103144.16;4881183;29;20237;-82
2021/12/16 04:14:50;;;;;;;7.82;2.70;;;;;;;7.74;100.00;103129.00;4865248;29;20178;-82
2021/12/16 04:17:19;;;;;;;8.20;3.22;;;;;;;7.73;100.00;103125.44;4845760;29;20204;-82
2021/12/16 04:19:52;;;;;;;10.65;3.40;;;;;;;7.75;100.00;103123.69;4861858;29;20277;-82
2021/12/16 04:22:28;;;;;;;9.45;3.28;;;;;;;7.74;100.00;103139.66;4876452;29;20245;-82
2021/12/16 04:25:01;;;;;;;9.55;3.55;;;;;;;7.75;100.00;103122.78;4860867;29;20197;-83
2021/12/16 04:27:29;;;;;;;11.25;3.60;;;;;;;7.74;100.00;103137.00;4846004;29;20201;-82
2021/12/16 04:29:55;;;;;;;6.53;2.95;;;;;;;7.77;100.00;103143.28;4845763;29;20178;-82
2021/12/16 04:32:21;;;;;;;7.88;2.80;;;;;;;7.78;100.00;103134.41;4845323;29;20205;-82
2021/12/16 04:34:47;;;;;;;9.23;3.42;;;;;;;7.78;100.00;103145.09;4876782;29;20582;-82
2021/12/16 04:37:13;;;;;;;8.07;3.00;;;;;;;7.78;100.00;103155.75;4860831;29;20186;-81
2021/12/16 04:39:43;;;;;;;10.43;2.97;;;;;;;7.70;100.00;103146.75;4862779;29;20237;-82
2021/12/16 04:42:12;;;;;;;10.85;3.13;;;;;;;7.77;100.00;103156.63;4875098;29;20234;-82
2021/12/16 04:44:41;;;;;;;10.88;2.97;;;;;;;7.72;100.00;103158.34;4859003;29;20271;-82
2021/12/16 04:47:07;;;;;;;11.90;3.17;;;;;;;7.84;100.00;103155.78;4859500;29;20226;-82
2021/12/16 04:49:35;;;;;;;11.05;3.00;;;;;;;7.81;100.00;103169.13;4860784;29;20197;-82
2021/12/16 04:52:05;;;;;;;15.57;3.58;;;;;;;7.77;100.00;103177.97;4859665;29;20237;-82
2021/12/16 04:54:31;;;;;;;8.95;3.40;;;;;;;7.77;100.00;103185.09;4843579;29;20190;-82
2021/12/16 04:56:59;;;;;;;10.10;3.40;;;;;;;7.78;100.00;103187.78;4859920;29;20190;-82
2021/12/16 04:59:27;;;;;;;10.82;3.38;;;;;;;7.72;100.00;103182.38;4878522;29;20559;-82
2021/12/16 05:01:57;;;;;;;10.70;3.28;;;;;;;7.77;100.00;103191.31;4866260;29;20201;-82
2021/12/16 05:04:46;;;;;;;15.30;3.30;;;;;;;7.73;100.00;103205.50;4856246;29;20341;-82
2021/12/16 05:07:13;;;;;;;9.73;3.40;;;;;;;7.80;100.00;103212.69;4864591;29;20178;-81
2021/12/16 05:10:05;;;;;;;13.85;3.35;;;;;;;7.72;100.00;103209.06;4864190;29;20198;-80
2021/12/16 05:12:40;;;;;;;8.57;2.83;;;;;;;7.78;100.00;103210.88;4863700;29;20210;-82
2021/12/16 05:15:09;;;;;;;10.27;4.35;;;;;;;7.76;100.00;103213.56;4864701;29;20183;-82
2021/12/16 05:17:42;;;;;;;9.68;3.28;;;;;;;7.75;100.00;103217.09;4863093;29;20190;-82
2021/12/16 05:20:17;;;;;;;13.25;3.70;;;;;;;7.79;100.00;103223.38;4864058;29;20186;-82
2021/12/16 05:25:48;;;;;;;10.45;3.53;;;;;;;7.78;100.00;103229.56;4863491;29;20285;-82
2021/12/16 05:28:17;;;;;;;12.60;4.15;;;;;;;7.77;100.00;103236.69;4864793;29;20268;-80
2021/12/16 05:30:42;;;;;;;9.20;3.78;;;;;;;7.79;100.00;103240.25;4851668;29;20231;-80
2021/12/16 05:33:09;;;;;;;9.00;3.47;;;;;;;7.78;100.00;103230.47;4866442;29;20278;-80
2021/12/16 05:35:35;;;;;;;9.75;3.58;;;;;;;7.78;100.00;103234.91;4848058;29;20190;-81
2021/12/16 05:38:01;;;;;;;12.48;3.40;;;;;;;7.71;100.00;103231.25;4850613;29;20176;-82
2021/12/16 05:40:28;;;;;;;11.32;3.72;;;;;;;7.77;100.00;103242.00;4862954;29;20567;-82
2021/12/16 05:43:09;;;;;;;10.88;4.25;;;;;;;7.78;100.00;103241.16;4878319;29;20190;-82
2021/12/16 05:45:35;;;;;;;12.48;3.58;;;;;;;7.72;100.00;103245.50;4862774;29;20190;-82
2021/12/16 05:48:04;;;;;;;13.27;4.55;;;;;;;7.74;100.00;103244.66;4877923;29;20216;-82
2021/12/16 05:50:33;;;;;;;9.07;3.58;;;;;;;7.76;100.00;103242.00;4878963;29;20265;-82
2021/12/16 05:52:59;;;;;;;8.32;3.60;;;;;;;7.73;100.00;103249.97;4862921;29;20687;-82
2021/12/16 05:55:25;;;;;;;9.27;3.50;;;;;;;7.70;100.00;103264.16;4863036;29;20185;-81
2021/12/16 05:58:05;;;;;;;12.27;4.38;;;;;;;7.69;100.00;103266.81;4861943;29;20540;-82
2021/12/16 06:00:40;;;;;;;14.10;4.38;;;;;;;7.70;100.00;103276.63;4847173;29;20641;-83
2021/12/16 06:03:09;;;;;;;9.23;3.42;;;;;;;7.68;100.00;103283.72;4865449;29;20189;-81
2021/12/16 06:05:36;;;;;;;12.73;3.97;;;;;;;7.68;100.00;103281.03;4863880;29;20273;-82
2021/12/16 06:08:03;;;;;;;9.30;4.75;;;;;;;7.69;100.00;103283.72;4865498;29;20216;-82
2021/12/16 06:13:13;;;;;;;15.52;4.00;;;;;;;7.67;100.00;103301.47;4867326;29;20210;-82
2021/12/16 06:26:53;;;;;;;10.65;3.53;;;;;;;7.47;100.00;103311.88;4862909;29;20197;-81
2021/12/16 06:29:19;;;;;;;8.63;3.60;;;;;;;7.48;100.00;103318.09;4863483;29;20173;-81
2021/12/16 06:31:45;;;;;;;7.95;3.70;;;;;;;7.50;100.00;103314.59;4863587;29;20240;-82
2021/12/16 06:34:10;;;;;;;14.15;3.70;;;;;;;7.40;100.00;103315.31;4863251;29;20733;-81
2021/12/16 06:36:36;;;;;;;9.75;4.03;;;;;;;7.35;100.00;103311.69;4863275;29;20167;-82
2021/12/16 06:39:03;;;;;;;10.85;3.45;;;;;;;7.27;100.00;103313.34;4863276;29;20182;-82
2021/12/16 06:41:38;;;;;;;9.00;3.30;;;;;;;7.32;100.00;103333.84;4863680;29;20198;-81
2021/12/16 06:44:30;;;;;;;9.05;3.20;;;;;;;7.24;100.00;103346.19;4864214;29;20199;-82
2021/12/16 06:47:02;;;;;;;9.25;3.20;;;;;;;7.27;100.00;103351.56;4863814;29;20170;-82
2021/12/16 06:49:29;;;;;;;7.85;3.40;;;;;;;7.17;100.00;103346.94;4864666;29;20846;-82
2021/12/16 06:52:03;;;;;;;11.13;3.10;;;;;;;7.16;100.00;103346.06;4883853;29;20202;-81
2021/12/16 06:54:35;;;;;;;14.88;3.75;;;;;;;7.08;100.00;103339.69;4865144;29;20218;-82
2021/12/16 06:59:33;;;;;;;10.77;3.55;;;;;;;7.08;100.00;103362.78;4867081;29;20178;-82
2021/12/16 07:02:16;;;;;;;12.73;3.13;;;;;;;7.05;100.00;103373.41;4865559;29;20226;-81
2021/12/16 07:04:43;;;;;;;10.70;2.78;;;;;;;7.06;100.00;103372.53;4865756;29;20610;-82
2021/12/16 07:07:10;;;;;;;7.75;2.88;;;;;;;7.07;100.00;103361.91;4865607;29;20280;-81
2021/12/16 07:09:36;;;;;;;11.73;3.45;;;;;;;7.01;100.00;103362.69;4863971;29;20189;-82
2021/12/16 07:12:03;;;;;;;12.13;3.92;;;;;;;7.08;100.00;103357.47;4864154;29;20221;-81
2021/12/16 07:14:37;;;;;;;13.85;3.45;;;;;;;7.00;100.00;103362.69;4864927;29;20249;-81
2021/12/16 07:17:12;;;;;;;13.02;3.35;;;;;;;6.99;100.00;103366.19;4864192;29;20162;-80
2021/12/16 07:19:39;;;;;;;13.43;3.30;;;;;;;7.09;100.00;103373.50;4867163;29;20558;-80
2021/12/16 07:22:06;;;;;;;11.35;3.55;;;;;;;7.08;100.00;103382.34;4866313;29;20204;-80
2021/12/16 07:24:32;;;;;;;17.30;4.55;;;;;;;6.99;100.00;103374.19;4862948;29;20190;-81
2021/12/16 07:26:58;;;;;;;12.63;3.80;;;;;;;6.94;100.00;103383.88;4877152;29;20185;-81
2021/12/16 07:29:23;;;;;;;13.80;5.22;;;;;;;6.87;100.00;103384.66;4873673;29;20652;-81
2021/12/16 07:31:49;;;;;;;21.08;6.40;;;;;;;6.84;100.00;103388.13;4882165;29;20193;-82
2021/12/16 07:34:15;;;;;;;20.20;5.80;;;;;;;6.89;100.00;103391.81;4879923;29;20241;-81
2021/12/16 07:36:43;;;;;;;15.90;5.22;;;;;;;6.81;100.00;103388.09;4880069;29;20228;-81
2021/12/16 07:39:11;;;;;;;19.50;6.13;;;;;;;6.72;100.00;103391.47;4883147;29;20184;-81
2021/12/16 07:41:39;;;;;;;18.75;6.45;;;;;;;6.60;100.00;103388.56;4855372;29;20354;-81
2021/12/16 07:44:10;;;;;;;21.35;6.15;;;;;;;6.64;100.00;103397.53;4879437;29;20251;-81
2021/12/16 07:46:40;;;;;;;17.13;5.28;;;;;;;6.62;100.00;103404.59;4878322;29;20252;-81
2021/12/16 07:49:08;;;;;;;15.50;5.00;;;;;;;6.45;100.00;103412.22;4875156;29;20208;-81
2021/12/16 07:51:35;;;;;;;15.95;3.85;;;;;;;6.56;100.00;103414.28;4858210;29;20605;-81
2021/12/16 07:54:00;;;;;;;14.48;4.88;;;;;;;6.51;100.00;103423.03;4862508;29;20213;-81
2021/12/16 07:56:27;;;;;;;10.45;3.65;;;;;;;6.52;100.00;103432.81;4861111;29;20186;-81
2021/12/16 07:58:52;;;;;;;17.02;4.13;;;;;;;6.52;100.00;103431.06;4861915;29;20217;-81
2021/12/16 08:01:18;;;;;;;13.77;4.43;;;;;;;6.44;100.00;103431.75;4864430;29;20241;-80
2021/12/16 08:03:43;;;;;;;16.27;4.15;;;;;;;6.55;100.00;103428.44;4861606;29;20185;-80
2021/12/16 08:06:13;;;;;;;20.88;4.47;;;;;;;6.46;100.00;103427.38;4878995;29;20193;-80
2021/12/16 08:08:39;;;;;;;18.00;3.83;;;;;;;6.48;100.00;103415.88;4881225;29;20188;-81
2021/12/16 08:11:06;;;;;;;12.68;3.90;;;;;;;6.52;100.00;103414.19;4881926;29;20184;-82
2021/12/16 08:13:33;;;;;;;17.35;4.13;;;;;;;6.49;100.00;103417.66;4870075;29;20202;-82
2021/12/16 08:15:59;;;;;;;17.65;3.85;;;;;;;6.46;100.00;103422.03;4862457;29;20182;-81
2021/12/16 08:18:25;;;;;;;16.73;3.80;;;;;;;6.57;100.00;103418.72;4862129;29;20185;-81
2021/12/16 08:20:51;;;;;;;34.47;5.65;;;;;;;6.57;100.00;103423.16;4865561;29;20175;-81
2021/12/16 08:23:17;;;;;;;25.58;4.85;;;;;;;6.57;100.00;103424.03;4862844;29;20662;-81
2021/12/16 08:25:44;;;;;;;19.70;4.05;;;;;;;6.56;100.00;103421.38;4856318;24;20266;-81
2021/12/16 08:28:11;;;;;;;21.88;5.07;;;;;;;6.55;100.00;103431.09;4871787;29;20630;-82
2021/12/16 08:30:41;;;;;;;20.27;4.95;;;;;;;6.59;100.00;103432.06;4867965;29;20182;-82
2021/12/16 08:33:10;;;;;;;24.30;4.90;;;;;;;6.57;100.00;103439.13;4867497;29;20201;-79
2021/12/16 08:35:40;;;;;;;23.67;4.50;;;;;;;6.62;100.00;103433.91;4837394;29;20178;-80
2021/12/16 08:38:06;;;;;;;26.52;4.97;;;;;;;6.67;100.00;103450.84;4851106;29;20318;-80
2021/12/16 08:40:32;;;;;;;30.02;5.93;;;;;;;6.61;100.00;103451.66;4836503;29;20203;-81
2021/12/16 08:42:57;;;;;;;22.10;4.55;;;;;;;6.62;100.00;103457.88;4848201;29;20225;-82
2021/12/16 08:45:27;;;;;;;23.20;5.40;;;;;;;6.69;100.00;103470.44;4864305;29;20174;-82
2021/12/16 08:47:55;;;;;;;23.00;4.63;;;;;;;6.68;100.00;103464.22;4865153;29;20174;-81
2021/12/16 08:50:28;;;;;;;22.85;4.72;;;;;;;6.65;100.00;103464.16;4864835;29;20178;-81
2021/12/16 08:52:54;;;;;;;19.17;4.47;;;;;;;6.59;100.00;103483.56;4865167;29;20218;-80
2021/12/16 08:55:21;;;;;;;21.48;4.32;;;;;;;6.72;100.00;103478.50;4866166;29;20174;-82
2021/12/16 08:57:46;;;;;;;18.77;4.50;;;;;;;6.57;100.00;103476.41;4864271;29;20186;-82
2021/12/16 09:00:18;;;;;;;31.13;5.53;;;;;;;6.54;100.00;103476.38;4834079;29;20177;-81
2021/12/16 09:02:43;;;;;;;14.40;4.25;;;;;;;6.49;100.00;103478.91;4850933;29;20664;-82
2021/12/16 09:05:09;;;;;;;20.00;5.13;;;;;;;6.56;100.00;103486.19;4850668;29;20198;-82
2021/12/16 09:07:38;;;;;;;18.92;4.32;;;;;;;6.58;100.00;103473.81;4850769;29;20170;-82
2021/12/16 09:10:08;;;;;;;23.48;5.82;;;;;;;6.36;100.00;103484.84;4834020;29;20197;-83
2021/12/16 09:15:02;;;;;;;12.55;3.70;;;;;;;6.44;100.00;103498.34;4865630;29;20187;-81
2021/12/16 09:17:28;;;;;;;20.88;4.63;;;;;;;6.43;100.00;103494.78;4856424;29;20285;-79
2021/12/16 09:19:55;;;;;;;24.75;4.68;;;;;;;6.43;100.00;103492.13;4866206;29;20193;-80
2021/12/16 09:22:25;;;;;;;16.98;4.30;;;;;;;6.55;100.00;103495.03;4848521;29;20725;-81
2021/12/16 09:24:52;;;;;;;28.10;5.00;;;;;;;6.50;100.00;103504.69;4863281;29;20245;-81
2021/12/16 09:27:20;;;;;;;21.27;4.45;;;;;;;6.43;100.00;103513.41;4864112;29;20652;-82
2021/12/16 09:29:47;;;;;;;19.77;4.82;;;;;;;6.41;100.00;103507.16;4856022;29;20198;-80
2021/12/16 09:32:13;;;;;;;24.27;4.60;;;;;;;6.52;100.00;103510.06;4847044;29;20233;-81
2021/12/16 09:34:41;;;;;;;22.95;5.38;;;;;;;6.56;100.00;103507.50;4844272;29;20207;-81
2021/12/16 09:37:07;;;;;;;27.13;5.47;;;;;;;6.71;100.00;103509.59;4845227;29;20186;-81
2021/12/16 09:39:33;;;;;;;30.67;6.20;;;;;;;6.78;100.00;103505.28;4829052;29;20183;-81
2021/12/16 09:41:59;;;;;;;20.95;5.15;;;;;;;6.95;100.00;103510.94;4846294;29;20203;-79
2021/12/16 09:44:26;;;;;;;21.23;5.65;;;;;;;6.98;100.00;103519.91;4847472;29;20186;-80
2021/12/16 09:46:56;;;;;;;18.10;4.68;;;;;;;7.01;100.00;103524.38;4847688;29;20231;-80
2021/12/16 09:49:22;;;;;;;24.33;5.63;;;;;;;6.97;100.00;103528.75;4846544;29;20178;-81
2021/12/16 09:51:51;;;;;;;23.02;5.78;;;;;;;6.94;100.00;103528.69;4845044;29;20205;-81
2021/12/16 09:54:24;;;;;;;29.98;6.18;;;;;;;7.06;100.00;103527.16;4848092;29;20195;-80
2021/12/16 09:56:50;;;;;;;17.70;6.07;;;;;;;7.10;100.00;103523.66;4865306;29;20185;-79
2021/12/16 09:59:18;;;;;;;30.70;6.55;;;;;;;7.13;100.00;103529.97;4869991;29;20174;-79
2021/12/16 10:01:47;;;;;;;30.17;6.47;;;;;;;7.14;100.00;103531.75;4854913;29;20233;-80
2021/12/16 10:04:15;;;;;;;30.08;6.70;;;;;;;7.14;100.00;103528.19;4866288;29;20624;-80
2021/12/16 10:06:42;;;;;;;21.02;5.85;;;;;;;7.21;100.00;103530.09;4863509;29;20197;-80
2021/12/16 10:09:09;;;;;;;25.20;6.55;;;;;;;7.23;100.00;103533.69;4847370;29;20242;-80
2021/12/16 10:11:37;;;;;;;37.70;7.47;;;;;;;7.40;100.00;103547.38;4863938;29;20242;-79
2021/12/16 10:19:22;;;;;;;25.10;6.00;;;;;;;7.54;100.00;103547.63;4845798;29;20197;-81
2021/12/16 10:21:48;;;;;;;23.83;5.47;;;;;;;7.56;100.00;103537.88;4863819;29;20197;-79
2021/12/16 10:24:28;;;;;;;21.48;5.70;;;;;;;7.64;100.00;103545.13;4848778;29;20182;-79
2021/12/16 10:27:17;;;;;;;30.42;10.52;;;;;;;7.70;100.00;103543.47;4848027;29;20192;-79
2021/12/16 10:29:56;;;;;;;29.58;7.15;;;;;;;7.60;100.00;103540.63;4866083;29;20177;-80
2021/12/16 10:32:30;;;;;;;24.90;6.80;;;;;;;7.66;100.00;103541.63;4849384;29;20222;-80
2021/12/16 10:34:58;;;;;;;32.88;7.30;;;;;;;7.64;100.00;103539.81;4849484;29;20202;-81
2021/12/16 10:37:33;;;;;;;27.85;6.20;;;;;;;7.75;100.00;103549.78;4862682;29;20252;-81
2021/12/16 10:40:26;;;;;;;34.65;7.47;;;;;;;7.75;100.00;103558.66;4846443;29;20325;-81
2021/12/16 10:42:53;;;;;;;24.50;6.22;;;;;;;7.84;100.00;103573.94;4862966;29;20201;-81
2021/12/16 10:45:30;;;;;;;26.35;6.65;;;;;;;7.86;100.00;103565.97;4846803;29;20194;-81
2021/12/16 10:48:17;;;;;;;27.75;7.57;;;;;;;7.72;100.00;103553.28;4831054;29;20193;-83
2021/12/16 10:51:13;;;;;;;26.23;6.65;;;;;;;7.78;100.00;103558.75;4849803;29;20229;-81
2021/12/16 10:53:43;;;;;;;21.88;5.63;;;;;;;7.80;100.00;103562.31;4830175;29;20691;-80
2021/12/16 10:56:08;;;;;;;20.08;4.82;;;;;;;7.83;100.00;103575.72;4848250;29;20190;-80
2021/12/16 10:58:55;;;;;;;26.63;5.63;;;;;;;7.72;100.00;103568.38;4851429;29;20194;-81
2021/12/16 11:01:43;;;;;;;22.92;4.88;;;;;;;7.75;100.00;103566.69;4850035;29;20199;-81
2021/12/16 11:04:25;;;;;;;17.30;5.03;;;;;;;7.74;100.00;103575.56;4850432;29;20175;-80
2021/12/16 11:06:55;;;;;;;29.67;6.43;;;;;;;7.65;100.00;103575.38;4849323;29;20189;-81
2021/12/16 11:10:01;;;;;;;24.10;5.53;;;;;;;7.50;100.00;103575.09;4848285;29;20306;-79
2021/12/16 11:12:50;;;;;;;38.58;7.40;;;;;;;7.48;100.00;103580.44;4834429;29;20242;-81
2021/12/16 11:15:18;;;;;;;28.98;7.28;;;;;;;7.50;100.00;103585.78;4846734;29;20206;-81
2021/12/16 11:17:48;;;;;;;22.27;6.72;;;;;;;7.52;100.00;103584.94;4846527;29;20673;-81
2021/12/16 11:20:34;;;;;;;23.38;6.50;;;;;;;7.58;100.00;103581.47;4828871;29;20223;-80
2021/12/16 11:23:06;;;;;;;31.40;6.47;;;;;;;7.53;100.00;103585.84;4845747;29;20290;-81
2021/12/16 11:25:34;;;;;;;22.05;6.45;;;;;;;7.50;100.00;103596.44;4830769;29;20194;-81
2021/12/16 11:28:23;;;;;;;25.70;6.22;;;;;;;7.61;100.00;103589.56;4847228;29;20187;-80
2021/12/16 11:30:53;;;;;;;27.25;6.63;;;;;;;7.49;100.00;103600.88;4829892;29;20167;-80
2021/12/16 11:33:35;;;;;;;30.88;6.95;;;;;;;7.46;100.00;103603.50;4830594;29;20211;-80
2021/12/16 11:36:16;;;;;;;28.58;6.78;;;;;;;7.43;100.00;103596.34;4830760;29;20657;-80
2021/12/16 11:38:49;;;;;;;28.65;6.50;;;;;;;7.48;100.00;103603.50;4843263;29;20190;-81
2021/12/16 11:41:22;;;;;;;28.17;6.43;;;;;;;7.44;100.00;103597.25;4828728;29;20218;-81
2021/12/16 11:44:00;;;;;;;26.30;5.95;;;;;;;7.50;100.00;103696.06;4845481;29;20203;-80
2021/12/16 11:46:33;;;;;;;26.00;6.80;;;;;;;7.48;100.00;103623.13;4845213;29;20178;-82
2021/12/16 11:49:07;;;;;;;20.52;6.35;;;;;;;7.70;100.00;103600.41;4844064;29;20207;-82
2021/12/16 11:51:40;;;;;;;23.40;6.43;;;;;;;7.59;100.00;103601.97;4844580;29;20206;-82
2021/12/16 11:54:22;;;;;;;20.27;6.50;;;;;;;7.60;100.00;103601.09;4844605;29;20218;-82
2021/12/16 11:56:54;;;;;;;20.00;6.03;;;;;;;7.56;100.00;103613.47;4829111;29;20198;-82
2021/12/16 11:59:27;;;;;;;25.65;5.45;;;;;;;7.57;100.00;103615.28;4845235;29;20278;-82
2021/12/16 12:01:54;;;;;;;28.27;6.22;;;;;;;7.42;100.00;103609.66;4843520;29;20688;-82
2021/12/16 12:04:26;;;;;;;25.98;6.25;;;;;;;7.39;100.00;103604.22;4844862;29;20620;-82
2021/12/16 12:06:51;;;;;;;25.90;6.25;;;;;;;7.42;100.00;103609.66;4842136;29;20208;-82
2021/12/16 12:09:17;;;;;;;23.73;6.00;;;;;;;7.46;100.00;103595.50;4843938;29;20183;-82
2021/12/16 12:11:43;;;;;;;24.88;6.22;;;;;;;7.36;100.00;103596.19;4842469;29;20676;-82
2021/12/16 12:14:17;;;;;;;18.63;5.32;;;;;;;7.61;100.00;103595.78;4842399;29;20207;-82
2021/12/16 12:16:45;;;;;;;28.88;6.13;;;;;;;7.39;100.00;103597.16;4841464;29;20524;-82
2021/12/16 12:19:15;;;;;;;22.15;6.20;;;;;;;7.36;100.00;103602.41;4843994;29;20183;-80
2021/12/16 12:21:56;;;;;;;17.10;5.45;;;;;;;7.20;100.00;103621.66;4828339;29;20703;-82
2021/12/16 12:24:31;;;;;;;26.13;6.70;;;;;;;7.33;100.00;103620.13;4844582;29;20193;-82
2021/12/16 12:27:11;;;;;;;19.75;5.88;;;;;;;7.23;100.00;103635.94;4843870;29;20606;-82
2021/12/16 12:29:41;;;;;;;22.05;6.57;;;;;;;7.26;100.00;103619.13;4842374;29;20179;-83
2021/12/16 12:32:13;;;;;;;25.00;6.97;;;;;;;7.08;100.00;103635.59;4842232;29;20251;-83
2021/12/16 12:34:54;;;;;;;19.75;6.82;;;;;;;7.19;100.00;103650.09;4841666;29;20204;-83
2021/12/16 12:37:21;;;;;;;25.17;8.60;;;;;;;7.16;100.00;103643.78;4830802;29;20186;-81
2021/12/16 12:39:51;;;;;;;33.92;10.02;;;;;;;7.13;100.00;103638.41;4844732;29;20178;-81
2021/12/16 12:42:17;;;;;;;21.60;8.63;;;;;;;7.10;100.00;103624.97;4845354;29;20662;-82
2021/12/16 12:44:44;;;;;;;22.83;7.15;;;;;;;7.01;100.00;103636.34;4827224;29;20191;-82
2021/12/16 12:47:17;;;;;;;22.98;7.00;;;;;;;7.04;100.00;103628.44;4842901;29;20183;-82
2021/12/16 12:49:44;;;;;;;27.20;6.57;;;;;;;7.01;100.00;103647.91;4846444;29;20250;-81
2021/12/16 12:52:16;;;;;;;23.67;6.18;;;;;;;7.04;100.00;103651.50;4865020;29;20206;-81
2021/12/16 12:55:00;;;;;;;22.75;5.72;;;;;;;6.99;100.00;103640.75;4844065;29;20207;-81
2021/12/16 12:57:27;;;;;;;18.33;4.63;;;;;;;6.87;100.00;103635.16;4810950;29;20227;-82
2021/12/16 12:59:53;;;;;;;20.73;5.07;;;;;;;6.92;100.00;103634.38;4842943;29;20194;-81
2021/12/16 13:02:26;;;;;;;16.17;4.53;;;;;;;6.94;100.00;103623.75;4813360;29;20249;-80
2021/12/16 13:04:57;;;;;;;19.98;5.32;;;;;;;6.90;100.00;103612.13;4832852;29;20191;-81
2021/12/16 13:07:38;;;;;;;21.60;4.70;;;;;;;6.87;100.00;103604.06;4848231;29;20175;-81
2021/12/16 13:10:10;;;;;;;18.98;4.25;;;;;;;6.75;100.00;103603.78;4845803;29;20187;-82
2021/12/16 13:12:49;;;;;;;20.10;5.20;;;;;;;6.73;100.00;103597.53;4813389;29;20715;-82
2021/12/16 13:15:32;;;;;;;18.05;5.15;;;;;;;6.71;100.00;103609.91;4827583;29;20197;-82
2021/12/16 13:26:49;;;;;;;17.33;4.55;;;;;;;6.73;100.00;103626.84;4867733;29;20600;-82
2021/12/16 13:29:53;;;;;;;18.05;4.70;;;;;;;6.65;100.00;103624.00;4832556;29;20200;-82
2021/12/16 13:32:26;;;;;;;18.05;5.32;;;;;;;6.62;100.00;103618.59;4863865;29;20202;-81
2021/12/16 13:36:01;;;;;;;24.45;5.32;;;;;;;6.55;100.00;103614.00;4862430;29;20205;-82
2021/12/16 13:37:57;;;;;;;28.60;4.80;;;;;;;6.55;100.00;103617.56;4837025;29;20648;-81
2021/12/16 13:40:28;;;;;;;21.60;5.00;;;;;;;6.47;100.00;103612.91;4862624;29;20189;-82
2021/12/16 13:42:58;;;;;;;22.02;4.75;;;;;;;6.44;100.00;103615.50;4862303;29;20194;-81
2021/12/16 13:45:32;;;;;;;17.92;5.07;;;;;;;6.43;100.00;103611.03;4848151;29;20237;-82
2021/12/16 14:02:34;;;;;;;17.13;5.22;;;;;;;6.17;100.00;103616.66;4845955;29;20203;-81
2021/12/16 14:08:01;;;;;;;14.05;4.40;;;;;;;6.19;100.00;103617.59;4846496;29;20339;-81
2021/12/16 14:10:44;;;;;;;22.45;5.38;;;;;;;6.08;100.00;103616.38;4844940;29;20843;-82
2021/12/16 14:25:28;;;;;;;20.70;6.25;;;;;;;5.90;100.00;103633.69;4848129;29;20179;-80
2021/12/16 14:42:08;;;;;;;21.90;6.32;;;;;;;5.72;100.00;103647.38;4808825;29;20212;-82
2021/12/16 14:47:55;;;;;;;25.90;7.07;;;;;;;5.73;100.00;103656.28;4848199;29;20209;-80
2021/12/16 14:50:01;;;;;;;23.00;6.93;;;;;;;5.75;100.00;103654.53;4865079;29;20198;-80
2021/12/16 14:52:29;;;;;;;21.05;6.50;;;;;;;5.77;100.00;103652.81;4857116;29;20202;-80
2021/12/16 14:55:01;;;;;;;18.27;6.50;;;;;;;5.80;100.00;103649.34;4832126;29;20182;-80
2021/12/16 14:57:42;;;;;;;23.52;7.53;;;;;;;5.80;100.00;103641.38;4862616;29;20598;-81
2021/12/16 15:00:38;;;;;;;24.25;7.22;;;;;;;5.71;100.00;103642.91;4830864;29;20185;-82
2021/12/16 15:03:12;;;;;;;18.75;6.25;;;;;;;5.85;100.00;103655.69;4844056;29;20220;-81